sensor_id;sensor_type;location;lat;lon;timestamp;pressure;altitude;pressure_sealevel;temperature;humidity
70916;BME280;58557;50.982;-3.222;2023-04-23T00:00:59;99338.17;;;14.86;57.77
70916;BME280;58557;50.982;-3.222;2023-04-23T00:03:25;99336.81;;;14.96;57.18
70916;BME280;58557;50.982;-3.222;2023-04-23T00:05:51;99337.20;;;14.80;56.25
70916;BME280;58557;50.982;-3.222;2023-04-23T00:08:17;99339.76;;;14.86;56.87
70916;BME280;58557;50.982;-3.222;2023-04-23T00:10:42;99341.54;;;14.46;57.03
70916;BME280;58557;50.982;-3.222;2023-04-23T00:13:07;99343.94;;;14.95;56.44
70916;BME280;58557;50.982;-3.222;2023-04-23T00:15:33;99341.74;;;14.90;56.22
70916;BME280;58557;50.982;-3.222;2023-04-23T00:17:58;99346.48;;;14.71;57.97
70916;BME280;58557;50.982;-3.222;2023-04-23T00:20:24;99344.62;;;13.15;61.31
70916;BME280;58557;50.982;-3.222;2023-04-23T00:22:49;99344.38;;;13.03;62.86
70916;BME280;58557;50.982;-3.222;2023-04-23T00:25:14;99347.20;;;12.18;64.22
70916;BME280;58557;50.982;-3.222;2023-04-23T00:27:40;99348.69;;;12.63;64.15
70916;BME280;58557;50.982;-3.222;2023-04-23T00:30:06;99347.36;;;13.10;61.29
70916;BME280;58557;50.982;-3.222;2023-04-23T00:32:31;99344.80;;;13.15;63.23
70916;BME280;58557;50.982;-3.222;2023-04-23T00:34:57;99346.58;;;14.27;60.45
70916;BME280;58557;50.982;-3.222;2023-04-23T00:37:22;99349.38;;;11.73;64.16
70916;BME280;58557;50.982;-3.222;2023-04-23T00:39:48;99348.33;;;13.12;64.45
70916;BME280;58557;50.982;-3.222;2023-04-23T00:42:14;99351.11;;;13.24;61.95
70916;BME280;58557;50.982;-3.222;2023-04-23T00:44:40;99353.80;;;13.35;61.27
70916;BME280;58557;50.982;-3.222;2023-04-23T00:47:05;99355.87;;;13.93;59.67
70916;BME280;58557;50.982;-3.222;2023-04-23T00:49:30;99352.49;;;13.52;59.36
70916;BME280;58557;50.982;-3.222;2023-04-23T00:51:56;99356.76;;;12.83;63.20
70916;BME280;58557;50.982;-3.222;2023-04-23T00:54:22;99361.07;;;13.18;62.34
70916;BME280;58557;50.982;-3.222;2023-04-23T00:56:47;99362.08;;;12.92;63.39
70916;BME280;58557;50.982;-3.222;2023-04-23T00:59:13;99355.60;;;13.37;61.27
70916;BME280;58557;50.982;-3.222;2023-04-23T01:01:39;99352.80;;;13.67;60.90
70916;BME280;58557;50.982;-3.222;2023-04-23T01:04:05;99355.97;;;14.04;58.56
70916;BME280;58557;50.982;-3.222;2023-04-23T01:06:31;99357.81;;;13.36;59.98
70916;BME280;58557;50.982;-3.222;2023-04-23T01:08:56;99365.11;;;12.44;61.75
70916;BME280;58557;50.982;-3.222;2023-04-23T01:11:22;99365.30;;;12.49;64.14
70916;BME280;58557;50.982;-3.222;2023-04-23T01:13:47;99359.77;;;13.42;59.21
70916;BME280;58557;50.982;-3.222;2023-04-23T01:16:13;99360.65;;;13.17;62.82
70916;BME280;58557;50.982;-3.222;2023-04-23T01:18:38;99361.22;;;13.34;59.83
70916;BME280;58557;50.982;-3.222;2023-04-23T01:21:04;99361.93;;;13.58;59.69
70916;BME280;58557;50.982;-3.222;2023-04-23T01:23:30;99359.36;;;13.10;59.90
70916;BME280;58557;50.982;-3.222;2023-04-23T01:25:55;99359.79;;;13.31;60.52
70916;BME280;58557;50.982;-3.222;2023-04-23T01:28:21;99360.72;;;13.89;58.17
70916;BME280;58557;50.982;-3.222;2023-04-23T01:30:47;99356.99;;;13.28;57.48
70916;BME280;58557;50.982;-3.222;2023-04-23T01:33:11;99356.23;;;13.21;59.07
70916;BME280;58557;50.982;-3.222;2023-04-23T01:35:37;99355.53;;;13.61;57.20
70916;BME280;58557;50.982;-3.222;2023-04-23T01:38:03;99360.00;;;14.08;57.21
70916;BME280;58557;50.982;-3.222;2023-04-23T01:40:27;99361.42;;;13.52;55.78
70916;BME280;58557;50.982;-3.222;2023-04-23T01:42:53;99367.33;;;12.57;60.25
70916;BME280;58557;50.982;-3.222;2023-04-23T01:45:19;99362.83;;;13.24;57.69
70916;BME280;58557;50.982;-3.222;2023-04-23T01:47:45;99371.54;;;12.42;60.32
70916;BME280;58557;50.982;-3.222;2023-04-23T01:50:10;99372.36;;;12.25;62.75
70916;BME280;58557;50.982;-3.222;2023-04-23T01:52:35;99372.62;;;12.22;62.18
70916;BME280;58557;50.982;-3.222;2023-04-23T01:55:02;99372.20;;;11.14;63.14
70916;BME280;58557;50.982;-3.222;2023-04-23T01:57:27;99377.82;;;12.55;60.51
70916;BME280;58557;50.982;-3.222;2023-04-23T02:00:00;99383.76;;;12.73;60.65
70916;BME280;58557;50.982;-3.222;2023-04-23T02:02:18;99390.39;;;12.82;59.73
70916;BME280;58557;50.982;-3.222;2023-04-23T02:04:44;99386.76;;;13.52;57.23
70916;BME280;58557;50.982;-3.222;2023-04-23T02:07:08;99392.77;;;13.31;58.22
70916;BME280;58557;50.982;-3.222;2023-04-23T02:09:34;99391.89;;;14.04;55.68
70916;BME280;58557;50.982;-3.222;2023-04-23T02:12:00;99390.77;;;13.86;55.96
70916;BME280;58557;50.982;-3.222;2023-04-23T02:14:25;99397.10;;;13.36;56.99
70916;BME280;58557;50.982;-3.222;2023-04-23T02:16:51;99394.89;;;13.45;56.74
70916;BME280;58557;50.982;-3.222;2023-04-23T02:19:16;99393.67;;;13.13;56.79
70916;BME280;58557;50.982;-3.222;2023-04-23T02:21:42;99394.74;;;13.64;54.64
70916;BME280;58557;50.982;-3.222;2023-04-23T02:24:08;99398.17;;;11.66;61.66
70916;BME280;58557;50.982;-3.222;2023-04-23T02:26:33;99400.05;;;12.54;58.37
70916;BME280;58557;50.982;-3.222;2023-04-23T02:29:03;99396.93;;;13.32;55.65
70916;BME280;58557;50.982;-3.222;2023-04-23T02:31:24;99394.70;;;13.31;55.59
70916;BME280;58557;50.982;-3.222;2023-04-23T02:33:50;99392.95;;;13.78;54.66
70916;BME280;58557;50.982;-3.222;2023-04-23T02:36:15;99392.35;;;14.68;52.42
70916;BME280;58557;50.982;-3.222;2023-04-23T02:38:40;99394.38;;;14.88;50.58
70916;BME280;58557;50.982;-3.222;2023-04-23T02:41:06;99397.21;;;14.99;51.35
70916;BME280;58557;50.982;-3.222;2023-04-23T02:43:31;99399.77;;;14.68;51.37
70916;BME280;58557;50.982;-3.222;2023-04-23T02:45:57;99393.80;;;14.71;50.82
70916;BME280;58557;50.982;-3.222;2023-04-23T02:48:23;99392.75;;;14.63;51.14
70916;BME280;58557;50.982;-3.222;2023-04-23T02:50:48;99389.66;;;14.85;49.90
70916;BME280;58557;50.982;-3.222;2023-04-23T02:53:14;99388.61;;;14.35;50.25
70916;BME280;58557;50.982;-3.222;2023-04-23T02:55:39;99388.58;;;14.28;50.30
70916;BME280;58557;50.982;-3.222;2023-04-23T02:58:05;99385.76;;;14.70;48.68
70916;BME280;58557;50.982;-3.222;2023-04-23T03:00:31;99384.42;;;14.33;49.08
70916;BME280;58557;50.982;-3.222;2023-04-23T03:02:56;99384.37;;;14.92;50.01
70916;BME280;58557;50.982;-3.222;2023-04-23T03:05:22;99379.15;;;14.51;50.75
70916;BME280;58557;50.982;-3.222;2023-04-23T03:07:47;99379.18;;;14.61;50.59
70916;BME280;58557;50.982;-3.222;2023-04-23T03:10:13;99384.75;;;14.23;50.63
70916;BME280;58557;50.982;-3.222;2023-04-23T03:12:39;99387.64;;;14.55;49.97
70916;BME280;58557;50.982;-3.222;2023-04-23T03:15:05;99387.14;;;13.84;49.91
70916;BME280;58557;50.982;-3.222;2023-04-23T03:17:30;99391.60;;;13.90;49.56
70916;BME280;58557;50.982;-3.222;2023-04-23T03:19:55;99396.37;;;14.07;49.46
70916;BME280;58557;50.982;-3.222;2023-04-23T03:22:20;99395.96;;;14.03;49.77
70916;BME280;58557;50.982;-3.222;2023-04-23T03:24:45;99391.87;;;14.37;49.21
70916;BME280;58557;50.982;-3.222;2023-04-23T03:27:10;99387.78;;;13.34;51.62
70916;BME280;58557;50.982;-3.222;2023-04-23T03:29:36;99388.78;;;14.40;49.26
70916;BME280;58557;50.982;-3.222;2023-04-23T03:32:02;99391.52;;;13.65;49.51
70916;BME280;58557;50.982;-3.222;2023-04-23T03:34:27;99391.17;;;14.02;49.21
70916;BME280;58557;50.982;-3.222;2023-04-23T03:36:53;99396.48;;;14.09;49.66
70916;BME280;58557;50.982;-3.222;2023-04-23T03:39:18;99395.97;;;14.13;50.02
70916;BME280;58557;50.982;-3.222;2023-04-23T03:41:44;99393.42;;;13.92;51.76
70916;BME280;58557;50.982;-3.222;2023-04-23T03:44:10;99393.84;;;13.81;50.84
70916;BME280;58557;50.982;-3.222;2023-04-23T03:46:35;99398.53;;;14.06;50.49
70916;BME280;58557;50.982;-3.222;2023-04-23T03:49:00;99397.75;;;14.15;50.53
70916;BME280;58557;50.982;-3.222;2023-04-23T03:51:26;99398.25;;;13.92;50.30
70916;BME280;58557;50.982;-3.222;2023-04-23T03:53:51;99400.77;;;14.84;49.38
70916;BME280;58557;50.982;-3.222;2023-04-23T03:56:17;99400.63;;;14.41;48.81
70916;BME280;58557;50.982;-3.222;2023-04-23T03:58:42;99401.44;;;14.02;49.50
70916;BME280;58557;50.982;-3.222;2023-04-23T04:01:07;99399.63;;;13.94;49.15
70916;BME280;58557;50.982;-3.222;2023-04-23T04:03:32;99398.99;;;13.99;50.56
70916;BME280;58557;50.982;-3.222;2023-04-23T04:05:58;99401.68;;;13.61;50.60
70916;BME280;58557;50.982;-3.222;2023-04-23T04:08:23;99409.76;;;12.36;53.65
70916;BME280;58557;50.982;-3.222;2023-04-23T04:10:49;99408.06;;;12.21;55.94
70916;BME280;58557;50.982;-3.222;2023-04-23T04:13:14;99406.68;;;13.29;53.43
70916;BME280;58557;50.982;-3.222;2023-04-23T04:15:40;99406.38;;;12.23;56.69
70916;BME280;58557;50.982;-3.222;2023-04-23T04:18:05;99403.50;;;11.81;57.16
70916;BME280;58557;50.982;-3.222;2023-04-23T04:20:31;99401.67;;;12.73;54.54
70916;BME280;58557;50.982;-3.222;2023-04-23T04:22:56;99396.29;;;12.59;54.94
70916;BME280;58557;50.982;-3.222;2023-04-23T04:25:22;99394.65;;;11.45;60.09
70916;BME280;58557;50.982;-3.222;2023-04-23T04:27:48;99393.74;;;9.55;62.73
70916;BME280;58557;50.982;-3.222;2023-04-23T04:30:14;99391.16;;;11.51;59.37
70916;BME280;58557;50.982;-3.222;2023-04-23T04:32:39;99389.76;;;10.74;60.91
70916;BME280;58557;50.982;-3.222;2023-04-23T04:35:05;99387.22;;;10.53;60.49
70916;BME280;58557;50.982;-3.222;2023-04-23T04:37:31;99388.78;;;11.71;59.81
70916;BME280;58557;50.982;-3.222;2023-04-23T04:39:56;99384.47;;;11.87;57.14
70916;BME280;58557;50.982;-3.222;2023-04-23T04:42:22;99376.97;;;11.39;58.03
70916;BME280;58557;50.982;-3.222;2023-04-23T04:44:47;99376.71;;;12.24;55.72
70916;BME280;58557;50.982;-3.222;2023-04-23T04:47:12;99378.55;;;11.66;56.07
70916;BME280;58557;50.982;-3.222;2023-04-23T04:49:38;99376.53;;;11.11;57.79
70916;BME280;58557;50.982;-3.222;2023-04-23T04:52:08;99376.47;;;12.24;54.95
70916;BME280;58557;50.982;-3.222;2023-04-23T04:54:28;99376.92;;;11.23;57.65
70916;BME280;58557;50.982;-3.222;2023-04-23T04:56:54;99380.74;;;12.33;54.00
70916;BME280;58557;50.982;-3.222;2023-04-23T04:59:19;99379.64;;;11.59;54.99
70916;BME280;58557;50.982;-3.222;2023-04-23T05:01:44;99377.47;;;12.64;52.89
70916;BME280;58557;50.982;-3.222;2023-04-23T05:04:09;99379.37;;;11.93;54.91
70916;BME280;58557;50.982;-3.222;2023-04-23T05:06:35;99380.48;;;12.25;52.21
70916;BME280;58557;50.982;-3.222;2023-04-23T05:09:00;99379.83;;;12.63;50.45
70916;BME280;58557;50.982;-3.222;2023-04-23T05:11:26;99381.88;;;13.16;51.90
70916;BME280;58557;50.982;-3.222;2023-04-23T05:13:51;99381.82;;;12.89;49.80
70916;BME280;58557;50.982;-3.222;2023-04-23T05:16:17;99387.99;;;13.39;49.52
70916;BME280;58557;50.982;-3.222;2023-04-23T05:18:42;99393.73;;;12.08;52.08
70916;BME280;58557;50.982;-3.222;2023-04-23T05:21:08;99391.78;;;12.62;49.75
70916;BME280;58557;50.982;-3.222;2023-04-23T05:23:33;99388.16;;;13.05;50.29
70916;BME280;58557;50.982;-3.222;2023-04-23T05:25:58;99392.18;;;13.15;50.09
70916;BME280;58557;50.982;-3.222;2023-04-23T05:28:30;99393.95;;;12.71;49.90
70916;BME280;58557;50.982;-3.222;2023-04-23T05:30:50;99393.90;;;12.44;50.37
70916;BME280;58557;50.982;-3.222;2023-04-23T05:33:14;99393.00;;;12.91;49.69
70916;BME280;58557;50.982;-3.222;2023-04-23T05:35:40;99393.60;;;12.90;49.17
70916;BME280;58557;50.982;-3.222;2023-04-23T05:38:06;99393.55;;;12.71;49.36
70916;BME280;58557;50.982;-3.222;2023-04-23T05:40:31;99390.00;;;12.77;50.06
70916;BME280;58557;50.982;-3.222;2023-04-23T05:42:57;99389.18;;;13.03;49.63
70916;BME280;58557;50.982;-3.222;2023-04-23T05:45:21;99387.25;;;11.00;56.23
70916;BME280;58557;50.982;-3.222;2023-04-23T05:47:46;99387.39;;;11.61;54.96
70916;BME280;58557;50.982;-3.222;2023-04-23T05:50:12;99390.85;;;12.25;54.73
70916;BME280;58557;50.982;-3.222;2023-04-23T05:52:37;99389.05;;;12.19;55.43
70916;BME280;58557;50.982;-3.222;2023-04-23T05:55:03;99384.66;;;9.73;60.92
70916;BME280;58557;50.982;-3.222;2023-04-23T05:57:28;99381.96;;;11.68;59.10
70916;BME280;58557;50.982;-3.222;2023-04-23T05:59:53;99385.15;;;10.41;61.01
70916;BME280;58557;50.982;-3.222;2023-04-23T06:02:18;99384.35;;;10.83;59.75
70916;BME280;58557;50.982;-3.222;2023-04-23T06:04:44;99383.40;;;10.62;58.97
70916;BME280;58557;50.982;-3.222;2023-04-23T06:07:10;99383.60;;;11.53;56.09
70916;BME280;58557;50.982;-3.222;2023-04-23T06:09:35;99385.75;;;11.69;57.14
70916;BME280;58557;50.982;-3.222;2023-04-23T06:12:01;99384.19;;;12.76;53.83
70916;BME280;58557;50.982;-3.222;2023-04-23T06:14:26;99381.32;;;12.31;54.72
70916;BME280;58557;50.982;-3.222;2023-04-23T06:16:51;99380.65;;;12.25;54.15
70916;BME280;58557;50.982;-3.222;2023-04-23T06:19:17;99379.15;;;13.14;53.26
70916;BME280;58557;50.982;-3.222;2023-04-23T06:21:42;99373.96;;;11.29;57.94
70916;BME280;58557;50.982;-3.222;2023-04-23T06:24:08;99380.39;;;11.58;57.47
70916;BME280;58557;50.982;-3.222;2023-04-23T06:26:34;99382.50;;;10.64;59.67
70916;BME280;58557;50.982;-3.222;2023-04-23T06:28:59;99387.35;;;11.06;58.12
70916;BME280;58557;50.982;-3.222;2023-04-23T06:31:25;99388.44;;;11.26;58.54
70916;BME280;58557;50.982;-3.222;2023-04-23T06:33:51;99388.95;;;9.11;64.72
70916;BME280;58557;50.982;-3.222;2023-04-23T06:36:16;99389.50;;;11.32;62.19
70916;BME280;58557;50.982;-3.222;2023-04-23T06:38:41;99392.06;;;9.78;65.44
70916;BME280;58557;50.982;-3.222;2023-04-23T06:41:07;99395.32;;;9.94;66.08
70916;BME280;58557;50.982;-3.222;2023-04-23T06:43:32;99394.11;;;10.98;65.25
70916;BME280;58557;50.982;-3.222;2023-04-23T06:45:57;99392.55;;;10.74;62.33
70916;BME280;58557;50.982;-3.222;2023-04-23T06:48:23;99392.12;;;10.44;63.56
70916;BME280;58557;50.982;-3.222;2023-04-23T06:50:49;99396.37;;;9.52;64.96
70916;BME280;58557;50.982;-3.222;2023-04-23T06:53:14;99395.04;;;10.91;62.35
70916;BME280;58557;50.982;-3.222;2023-04-23T06:55:39;99394.94;;;11.93;59.46
70916;BME280;58557;50.982;-3.222;2023-04-23T06:58:05;99393.44;;;10.57;60.16
70916;BME280;58557;50.982;-3.222;2023-04-23T07:00:30;99395.17;;;11.53;59.61
70916;BME280;58557;50.982;-3.222;2023-04-23T07:02:57;99390.15;;;11.15;61.13
70916;BME280;58557;50.982;-3.222;2023-04-23T07:05:21;99389.44;;;10.44;61.88
70916;BME280;58557;50.982;-3.222;2023-04-23T07:07:46;99385.22;;;13.04;56.60
70916;BME280;58557;50.982;-3.222;2023-04-23T07:10:11;99386.40;;;12.61;55.59
70916;BME280;58557;50.982;-3.222;2023-04-23T07:12:38;99382.22;;;13.87;54.19
70916;BME280;58557;50.982;-3.222;2023-04-23T07:15:03;99385.69;;;13.85;53.30
70916;BME280;58557;50.982;-3.222;2023-04-23T07:17:28;99384.34;;;15.15;51.59
70916;BME280;58557;50.982;-3.222;2023-04-23T07:19:53;99386.53;;;15.80;49.13
70916;BME280;58557;50.982;-3.222;2023-04-23T07:22:18;99384.73;;;16.00;47.93
70916;BME280;58557;50.982;-3.222;2023-04-23T07:24:43;99383.67;;;13.52;50.30
70916;BME280;58557;50.982;-3.222;2023-04-23T07:27:09;99386.76;;;12.76;52.20
70916;BME280;58557;50.982;-3.222;2023-04-23T07:29:34;99382.70;;;14.34;50.24
70916;BME280;58557;50.982;-3.222;2023-04-23T07:31:59;99384.20;;;15.51;49.75
70916;BME280;58557;50.982;-3.222;2023-04-23T07:34:25;99383.05;;;13.59;52.33
70916;BME280;58557;50.982;-3.222;2023-04-23T07:36:51;99384.30;;;14.97;49.51
70916;BME280;58557;50.982;-3.222;2023-04-23T07:39:16;99385.20;;;16.27;45.53
70916;BME280;58557;50.982;-3.222;2023-04-23T07:41:41;99386.43;;;16.47;45.58
70916;BME280;58557;50.982;-3.222;2023-04-23T07:44:12;99390.99;;;13.41;49.62
70916;BME280;58557;50.982;-3.222;2023-04-23T07:46:32;99394.02;;;16.64;44.96
70916;BME280;58557;50.982;-3.222;2023-04-23T07:48:58;99398.28;;;14.41;47.57
70916;BME280;58557;50.982;-3.222;2023-04-23T07:51:24;99398.58;;;14.10;48.94
70916;BME280;58557;50.982;-3.222;2023-04-23T07:53:49;99393.80;;;13.39;52.27
70916;BME280;58557;50.982;-3.222;2023-04-23T07:56:15;99390.88;;;14.56;47.47
70916;BME280;58557;50.982;-3.222;2023-04-23T07:58:40;99389.35;;;14.64;48.83
70916;BME280;58557;50.982;-3.222;2023-04-23T08:01:06;99388.50;;;15.41;46.21
70916;BME280;58557;50.982;-3.222;2023-04-23T08:03:32;99391.88;;;17.86;41.74
70916;BME280;58557;50.982;-3.222;2023-04-23T08:05:57;99392.97;;;13.78;46.95
70916;BME280;58557;50.982;-3.222;2023-04-23T08:08:23;99394.11;;;13.23;47.85
70916;BME280;58557;50.982;-3.222;2023-04-23T08:10:48;99394.78;;;15.36;45.09
70916;BME280;58557;50.982;-3.222;2023-04-23T08:13:14;99396.28;;;15.69;45.78
70916;BME280;58557;50.982;-3.222;2023-04-23T08:15:39;99398.20;;;13.90;45.87
70916;BME280;58557;50.982;-3.222;2023-04-23T08:18:05;99393.93;;;16.10;43.64
70916;BME280;58557;50.982;-3.222;2023-04-23T08:20:31;99392.50;;;15.51;43.69
70916;BME280;58557;50.982;-3.222;2023-04-23T08:22:56;99399.33;;;16.71;42.47
70916;BME280;58557;50.982;-3.222;2023-04-23T08:25:21;99400.37;;;12.46;47.40
70916;BME280;58557;50.982;-3.222;2023-04-23T08:27:46;99401.66;;;14.28;46.98
70916;BME280;58557;50.982;-3.222;2023-04-23T08:30:13;99399.01;;;15.30;44.97
70916;BME280;58557;50.982;-3.222;2023-04-23T08:32:38;99399.44;;;16.23;45.60
70916;BME280;58557;50.982;-3.222;2023-04-23T08:35:03;99402.73;;;16.78;43.74
70916;BME280;58557;50.982;-3.222;2023-04-23T08:37:28;99404.12;;;17.78;42.92
70916;BME280;58557;50.982;-3.222;2023-04-23T08:39:54;99403.89;;;15.07;45.05
70916;BME280;58557;50.982;-3.222;2023-04-23T08:42:25;99401.69;;;14.57;47.80
70916;BME280;58557;50.982;-3.222;2023-04-23T08:44:46;99400.07;;;15.27;44.70
70916;BME280;58557;50.982;-3.222;2023-04-23T08:47:14;99397.33;;;12.87;48.08
70916;BME280;58557;50.982;-3.222;2023-04-23T08:49:36;99396.98;;;14.28;47.28
70916;BME280;58557;50.982;-3.222;2023-04-23T08:52:11;99396.53;;;13.19;47.82
70916;BME280;58557;50.982;-3.222;2023-04-23T08:54:28;99402.65;;;12.57;49.26
70916;BME280;58557;50.982;-3.222;2023-04-23T08:56:54;99395.99;;;13.78;48.61
70916;BME280;58557;50.982;-3.222;2023-04-23T08:59:17;99391.21;;;13.37;47.76
70916;BME280;58557;50.982;-3.222;2023-04-23T09:01:43;99394.75;;;13.76;48.99
70916;BME280;58557;50.982;-3.222;2023-04-23T09:04:08;99395.81;;;14.01;46.65
70916;BME280;58557;50.982;-3.222;2023-04-23T09:06:34;99396.62;;;13.60;47.41
70916;BME280;58557;50.982;-3.222;2023-04-23T09:09:00;99398.32;;;14.47;46.18
70916;BME280;58557;50.982;-3.222;2023-04-23T09:11:26;99396.36;;;12.56;48.61
70916;BME280;58557;50.982;-3.222;2023-04-23T09:13:50;99398.21;;;12.97;47.91
70916;BME280;58557;50.982;-3.222;2023-04-23T09:16:16;99398.87;;;14.37;46.40
70916;BME280;58557;50.982;-3.222;2023-04-23T09:18:41;99398.74;;;14.90;45.81
70916;BME280;58557;50.982;-3.222;2023-04-23T09:21:06;99393.35;;;12.89;47.68
70916;BME280;58557;50.982;-3.222;2023-04-23T09:23:31;99401.98;;;12.93;48.77
70916;BME280;58557;50.982;-3.222;2023-04-23T09:25:57;99401.51;;;12.21;51.57
70916;BME280;58557;50.982;-3.222;2023-04-23T09:28:33;99402.39;;;12.30;49.96
70916;BME280;58557;50.982;-3.222;2023-04-23T09:30:48;99405.36;;;12.33;52.07
70916;BME280;58557;50.982;-3.222;2023-04-23T09:33:15;99405.13;;;12.58;48.61
70916;BME280;58557;50.982;-3.222;2023-04-23T09:35:38;99396.34;;;15.80;45.58
70916;BME280;58557;50.982;-3.222;2023-04-23T09:38:03;99392.48;;;15.85;44.33
70916;BME280;58557;50.982;-3.222;2023-04-23T09:40:28;99390.59;;;13.74;45.00
70916;BME280;58557;50.982;-3.222;2023-04-23T09:42:54;99388.17;;;15.49;42.11
70916;BME280;58557;50.982;-3.222;2023-04-23T09:45:19;99396.42;;;15.20;44.45
70916;BME280;58557;50.982;-3.222;2023-04-23T09:47:51;99398.32;;;14.47;44.87
70916;BME280;58557;50.982;-3.222;2023-04-23T09:50:10;99400.06;;;12.53;47.32
70916;BME280;58557;50.982;-3.222;2023-04-23T09:52:38;99393.98;;;13.14;46.54
70916;BME280;58557;50.982;-3.222;2023-04-23T09:55:01;99392.50;;;12.97;48.05
70916;BME280;58557;50.982;-3.222;2023-04-23T09:57:26;99398.60;;;14.23;45.62
70916;BME280;58557;50.982;-3.222;2023-04-23T09:59:52;99398.57;;;13.87;46.04
70916;BME280;58557;50.982;-3.222;2023-04-23T10:02:17;99401.54;;;14.93;43.18
70916;BME280;58557;50.982;-3.222;2023-04-23T10:04:43;99402.20;;;14.54;44.15
70916;BME280;58557;50.982;-3.222;2023-04-23T10:07:08;99402.62;;;13.41;47.02
70916;BME280;58557;50.982;-3.222;2023-04-23T10:09:33;99404.45;;;13.54;47.42
70916;BME280;58557;50.982;-3.222;2023-04-23T10:12:00;99397.32;;;15.95;41.66
70916;BME280;58557;50.982;-3.222;2023-04-23T10:14:25;99398.09;;;15.70;42.26
70916;BME280;58557;50.982;-3.222;2023-04-23T10:16:51;99398.37;;;13.98;43.87
70916;BME280;58557;50.982;-3.222;2023-04-23T10:19:16;99400.06;;;14.20;42.22
70916;BME280;58557;50.982;-3.222;2023-04-23T10:21:41;99401.66;;;13.01;45.60
70916;BME280;58557;50.982;-3.222;2023-04-23T10:24:05;99403.32;;;13.64;42.34
70916;BME280;58557;50.982;-3.222;2023-04-23T10:26:30;99405.92;;;15.23;39.82
70916;BME280;58557;50.982;-3.222;2023-04-23T10:28:56;99409.65;;;13.57;40.55
70916;BME280;58557;50.982;-3.222;2023-04-23T10:31:21;99406.04;;;14.71;41.40
70916;BME280;58557;50.982;-3.222;2023-04-23T10:33:47;99401.87;;;14.52;36.97
70916;BME280;58557;50.982;-3.222;2023-04-23T10:36:12;99403.67;;;14.81;36.78
70916;BME280;58557;50.982;-3.222;2023-04-23T10:38:38;99408.16;;;15.76;36.63
70916;BME280;58557;50.982;-3.222;2023-04-23T10:41:04;99401.40;;;15.42;33.15
70916;BME280;58557;50.982;-3.222;2023-04-23T10:43:28;99404.73;;;15.03;35.49
70916;BME280;58557;50.982;-3.222;2023-04-23T10:45:54;99403.87;;;14.91;35.44
70916;BME280;58557;50.982;-3.222;2023-04-23T10:48:20;99404.96;;;15.26;35.42
70916;BME280;58557;50.982;-3.222;2023-04-23T10:50:45;99401.95;;;15.06;36.02
70916;BME280;58557;50.982;-3.222;2023-04-23T10:53:17;99399.77;;;15.71;35.51
70916;BME280;58557;50.982;-3.222;2023-04-23T10:55:36;99403.23;;;17.76;35.24
70916;BME280;58557;50.982;-3.222;2023-04-23T10:58:03;99406.18;;;17.62;34.02
70916;BME280;58557;50.982;-3.222;2023-04-23T11:00:28;99399.79;;;16.08;33.92
70916;BME280;58557;50.982;-3.222;2023-04-23T11:02:52;99403.54;;;18.61;32.74
70916;BME280;58557;50.982;-3.222;2023-04-23T11:05:18;99402.16;;;17.38;32.80
70916;BME280;58557;50.982;-3.222;2023-04-23T11:10:11;99398.98;;;16.20;37.31
70916;BME280;58557;50.982;-3.222;2023-04-23T11:12:34;99401.84;;;17.75;33.04
70916;BME280;58557;50.982;-3.222;2023-04-23T11:15:10;99403.01;;;16.83;32.75
70916;BME280;58557;50.982;-3.222;2023-04-23T11:20:06;99402.88;;;17.88;33.59
70916;BME280;58557;50.982;-3.222;2023-04-23T11:22:16;99402.35;;;17.62;34.48
70916;BME280;58557;50.982;-3.222;2023-04-23T11:24:42;99403.73;;;14.60;38.26
70916;BME280;58557;50.982;-3.222;2023-04-23T11:27:08;99401.68;;;16.51;35.77
70916;BME280;58557;50.982;-3.222;2023-04-23T11:29:33;99405.97;;;17.21;33.40
70916;BME280;58557;50.982;-3.222;2023-04-23T11:31:59;99410.01;;;16.47;36.09
70916;BME280;58557;50.982;-3.222;2023-04-23T11:34:24;99415.88;;;15.74;36.76
70916;BME280;58557;50.982;-3.222;2023-04-23T11:36:52;99420.74;;;14.08;38.13
70916;BME280;58557;50.982;-3.222;2023-04-23T11:39:15;99424.50;;;13.93;40.51
70916;BME280;58557;50.982;-3.222;2023-04-23T11:41:40;99432.35;;;12.85;42.93
70916;BME280;58557;50.982;-3.222;2023-04-23T11:44:06;99433.46;;;12.96;43.44
70916;BME280;58557;50.982;-3.222;2023-04-23T11:46:31;99433.19;;;13.09;43.37
70916;BME280;58557;50.982;-3.222;2023-04-23T11:48:56;99427.78;;;14.26;42.05
70916;BME280;58557;50.982;-3.222;2023-04-23T11:51:24;99431.65;;;14.46;40.13
70916;BME280;58557;50.982;-3.222;2023-04-23T11:53:48;99434.92;;;14.28;39.90
70916;BME280;58557;50.982;-3.222;2023-04-23T11:56:15;99428.96;;;13.97;39.15
70916;BME280;58557;50.982;-3.222;2023-04-23T11:58:39;99436.26;;;13.95;38.33
70916;BME280;58557;50.982;-3.222;2023-04-23T12:01:05;99436.45;;;15.27;36.61
70916;BME280;58557;50.982;-3.222;2023-04-23T12:03:30;99439.09;;;14.48;36.93
70916;BME280;58557;50.982;-3.222;2023-04-23T12:05:55;99439.70;;;15.19;38.22
70916;BME280;58557;50.982;-3.222;2023-04-23T12:08:21;99433.25;;;16.34;34.89
70916;BME280;58557;50.982;-3.222;2023-04-23T12:10:48;99435.02;;;15.33;34.39
70916;BME280;58557;50.982;-3.222;2023-04-23T12:13:14;99436.46;;;15.36;32.41
70916;BME280;58557;50.982;-3.222;2023-04-23T12:15:44;99440.41;;;15.98;34.86
70916;BME280;58557;50.982;-3.222;2023-04-23T12:18:09;99441.27;;;15.64;31.48
70916;BME280;58557;50.982;-3.222;2023-04-23T12:20:30;99445.92;;;15.88;32.66
70916;BME280;58557;50.982;-3.222;2023-04-23T12:23:02;99440.97;;;16.14;30.54
70916;BME280;58557;50.982;-3.222;2023-04-23T12:25:21;99448.40;;;16.31;30.20
70916;BME280;58557;50.982;-3.222;2023-04-23T12:27:47;99446.07;;;15.61;28.40
70916;BME280;58557;50.982;-3.222;2023-04-23T12:30:13;99448.80;;;14.71;30.57
70916;BME280;58557;50.982;-3.222;2023-04-23T12:32:38;99447.14;;;15.60;29.13
70916;BME280;58557;50.982;-3.222;2023-04-23T12:35:04;99447.62;;;15.23;29.31
70916;BME280;58557;50.982;-3.222;2023-04-23T12:37:30;99448.37;;;15.48;29.84
70916;BME280;58557;50.982;-3.222;2023-04-23T12:39:56;99450.75;;;14.54;30.91
70916;BME280;58557;50.982;-3.222;2023-04-23T12:42:21;99450.82;;;14.43;32.28
70916;BME280;58557;50.982;-3.222;2023-04-23T12:44:46;99454.73;;;14.95;32.56